sensor_id;sensor_type;location;lat;lon;timestamp;P1;durP1;ratioP1;P2;durP2;ratioP2
84329;SDS011;74510;42.676;23.432;2024-01-10T00:01:08;11.02;;;5.07;;
84329;SDS011;74510;42.676;23.432;2024-01-10T00:03:34;8.00;;;3.65;;
84329;SDS011;74510;42.676;23.432;2024-01-10T00:05:59;9.55;;;3.10;;
84329;SDS011;74510;42.676;23.432;2024-01-10T00:08:25;5.35;;;3.60;;
84329;SDS011;74510;42.676;23.432;2024-01-10T00:10:51;7.50;;;3.92;;
84329;SDS011;74510;42.676;23.432;2024-01-10T00:13:17;8.63;;;4.43;;
84329;SDS011;74510;42.676;23.432;2024-01-10T00:15:42;5.85;;;3.63;;
84329;SDS011;74510;42.676;23.432;2024-01-10T00:18:08;5.00;;;2.47;;
84329;SDS011;74510;42.676;23.432;2024-01-10T00:20:33;3.00;;;2.40;;
84329;SDS011;74510;42.676;23.432;2024-01-10T00:22:59;8.43;;;4.88;;
84329;SDS011;74510;42.676;23.432;2024-01-10T00:25:24;4.75;;;3.08;;
84329;SDS011;74510;42.676;23.432;2024-01-10T00:27:49;3.80;;;2.78;;
84329;SDS011;74510;42.676;23.432;2024-01-10T00:30:15;5.78;;;2.75;;
84329;SDS011;74510;42.676;23.432;2024-01-10T00:32:40;6.28;;;2.90;;
84329;SDS011;74510;42.676;23.432;2024-01-10T00:35:06;4.65;;;3.15;;
84329;SDS011;74510;42.676;23.432;2024-01-10T00:37:32;4.70;;;3.00;;
84329;SDS011;74510;42.676;23.432;2024-01-10T00:39:57;5.88;;;4.38;;
84329;SDS011;74510;42.676;23.432;2024-01-10T00:42:23;5.63;;;3.97;;
84329;SDS011;74510;42.676;23.432;2024-01-10T00:44:49;7.18;;;3.38;;
84329;SDS011;74510;42.676;23.432;2024-01-10T00:47:14;4.47;;;3.17;;
84329;SDS011;74510;42.676;23.432;2024-01-10T00:49:39;4.60;;;3.00;;
84329;SDS011;74510;42.676;23.432;2024-01-10T00:52:05;2.70;;;2.50;;
84329;SDS011;74510;42.676;23.432;2024-01-10T00:54:30;7.50;;;3.72;;
84329;SDS011;74510;42.676;23.432;2024-01-10T00:56:56;2.67;;;2.28;;
84329;SDS011;74510;42.676;23.432;2024-01-10T00:59:21;5.15;;;3.28;;
84329;SDS011;74510;42.676;23.432;2024-01-10T01:01:46;2.85;;;2.28;;
84329;SDS011;74510;42.676;23.432;2024-01-10T01:04:12;4.78;;;1.63;;
84329;SDS011;74510;42.676;23.432;2024-01-10T01:06:37;4.13;;;2.55;;
84329;SDS011;74510;42.676;23.432;2024-01-10T01:09:03;4.30;;;2.40;;
84329;SDS011;74510;42.676;23.432;2024-01-10T01:11:28;7.22;;;4.30;;
84329;SDS011;74510;42.676;23.432;2024-01-10T01:13:53;10.52;;;6.03;;
84329;SDS011;74510;42.676;23.432;2024-01-10T01:16:19;3.30;;;2.08;;
84329;SDS011;74510;42.676;23.432;2024-01-10T01:18:44;3.67;;;2.80;;
84329;SDS011;74510;42.676;23.432;2024-01-10T01:21:10;1.42;;;1.27;;
84329;SDS011;74510;42.676;23.432;2024-01-10T01:23:36;3.67;;;1.80;;
84329;SDS011;74510;42.676;23.432;2024-01-10T01:26:02;2.58;;;2.17;;
84329;SDS011;74510;42.676;23.432;2024-01-10T01:28:29;4.07;;;2.60;;
84329;SDS011;74510;42.676;23.432;2024-01-10T01:30:54;3.60;;;2.63;;
84329;SDS011;74510;42.676;23.432;2024-01-10T01:33:20;5.85;;;2.67;;
84329;SDS011;74510;42.676;23.432;2024-01-10T01:35:45;2.90;;;2.10;;
84329;SDS011;74510;42.676;23.432;2024-01-10T01:38:11;2.65;;;1.92;;
84329;SDS011;74510;42.676;23.432;2024-01-10T01:40:36;3.13;;;1.95;;
84329;SDS011;74510;42.676;23.432;2024-01-10T01:43:02;2.22;;;1.95;;
84329;SDS011;74510;42.676;23.432;2024-01-10T01:45:44;5.00;;;3.05;;
84329;SDS011;74510;42.676;23.432;2024-01-10T01:48:10;3.70;;;3.08;;
84329;SDS011;74510;42.676;23.432;2024-01-10T01:50:35;7.72;;;3.28;;
84329;SDS011;74510;42.676;23.432;2024-01-10T01:53:01;5.72;;;2.90;;
84329;SDS011;74510;42.676;23.432;2024-01-10T01:55:26;5.10;;;2.55;;
84329;SDS011;74510;42.676;23.432;2024-01-10T01:57:51;3.58;;;2.55;;
84329;SDS011;74510;42.676;23.432;2024-01-10T02:00:17;4.13;;;2.90;;
84329;SDS011;74510;42.676;23.432;2024-01-10T02:02:43;2.83;;;2.25;;
84329;SDS011;74510;42.676;23.432;2024-01-10T02:05:09;5.28;;;4.57;;
84329;SDS011;74510;42.676;23.432;2024-01-10T02:07:35;3.45;;;2.47;;
84329;SDS011;74510;42.676;23.432;2024-01-10T02:10:00;4.07;;;2.30;;
84329;SDS011;74510;42.676;23.432;2024-01-10T02:12:25;6.47;;;2.40;;
84329;SDS011;74510;42.676;23.432;2024-01-10T02:14:51;3.72;;;2.50;;
84329;SDS011;74510;42.676;23.432;2024-01-10T02:17:17;3.72;;;2.58;;
84329;SDS011;74510;42.676;23.432;2024-01-10T02:19:42;3.97;;;2.58;;
84329;SDS011;74510;42.676;23.432;2024-01-10T02:22:08;4.75;;;2.47;;
84329;SDS011;74510;42.676;23.432;2024-01-10T02:24:33;5.47;;;2.85;;
84329;SDS011;74510;42.676;23.432;2024-01-10T02:26:59;4.68;;;2.70;;
84329;SDS011;74510;42.676;23.432;2024-01-10T02:29:24;3.78;;;2.60;;
84329;SDS011;74510;42.676;23.432;2024-01-10T02:31:50;4.15;;;3.35;;
84329;SDS011;74510;42.676;23.432;2024-01-10T02:34:16;2.63;;;2.30;;
84329;SDS011;74510;42.676;23.432;2024-01-10T02:36:41;5.40;;;3.33;;
84329;SDS011;74510;42.676;23.432;2024-01-10T02:39:07;6.53;;;3.60;;
84329;SDS011;74510;42.676;23.432;2024-01-10T02:41:32;5.53;;;3.20;;
84329;SDS011;74510;42.676;23.432;2024-01-10T02:43:57;3.90;;;3.13;;
84329;SDS011;74510;42.676;23.432;2024-01-10T02:46:24;3.17;;;2.88;;
84329;SDS011;74510;42.676;23.432;2024-01-10T02:48:52;7.75;;;4.28;;
84329;SDS011;74510;42.676;23.432;2024-01-10T02:51:19;5.55;;;2.90;;
84329;SDS011;74510;42.676;23.432;2024-01-10T02:53:44;5.60;;;3.38;;
84329;SDS011;74510;42.676;23.432;2024-01-10T02:56:10;5.80;;;3.22;;
84329;SDS011;74510;42.676;23.432;2024-01-10T02:58:35;7.75;;;3.90;;
84329;SDS011;74510;42.676;23.432;2024-01-10T03:01:00;4.05;;;3.28;;
84329;SDS011;74510;42.676;23.432;2024-01-10T03:03:26;3.45;;;3.03;;
84329;SDS011;74510;42.676;23.432;2024-01-10T03:05:52;5.28;;;2.65;;
84329;SDS011;74510;42.676;23.432;2024-01-10T03:08:17;3.70;;;2.88;;
84329;SDS011;74510;42.676;23.432;2024-01-10T03:10:42;3.88;;;2.40;;
84329;SDS011;74510;42.676;23.432;2024-01-10T03:13:08;5.30;;;2.80;;
84329;SDS011;74510;42.676;23.432;2024-01-10T03:15:33;5.78;;;3.30;;
84329;SDS011;74510;42.676;23.432;2024-01-10T03:17:58;5.13;;;3.28;;
84329;SDS011;74510;42.676;23.432;2024-01-10T03:20:27;7.70;;;6.00;;
84329;SDS011;74510;42.676;23.432;2024-01-10T03:22:52;4.47;;;3.45;;
84329;SDS011;74510;42.676;23.432;2024-01-10T03:25:18;4.95;;;2.72;;
84329;SDS011;74510;42.676;23.432;2024-01-10T03:27:43;8.07;;;3.70;;
84329;SDS011;74510;42.676;23.432;2024-01-10T03:30:09;6.70;;;3.30;;
84329;SDS011;74510;42.676;23.432;2024-01-10T03:32:35;5.95;;;3.45;;
84329;SDS011;74510;42.676;23.432;2024-01-10T03:35:00;5.60;;;3.15;;
84329;SDS011;74510;42.676;23.432;2024-01-10T03:37:26;9.57;;;3.75;;
84329;SDS011;74510;42.676;23.432;2024-01-10T03:39:51;4.45;;;2.83;;
84329;SDS011;74510;42.676;23.432;2024-01-10T03:42:16;3.60;;;2.85;;
84329;SDS011;74510;42.676;23.432;2024-01-10T03:44:42;27.15;;;17.20;;
84329;SDS011;74510;42.676;23.432;2024-01-10T03:47:07;11.07;;;5.68;;
84329;SDS011;74510;42.676;23.432;2024-01-10T03:49:32;8.95;;;4.78;;
84329;SDS011;74510;42.676;23.432;2024-01-10T03:51:58;3.78;;;2.60;;
84329;SDS011;74510;42.676;23.432;2024-01-10T03:54:23;6.13;;;3.92;;
84329;SDS011;74510;42.676;23.432;2024-01-10T03:56:49;5.28;;;3.95;;
84329;SDS011;74510;42.676;23.432;2024-01-10T03:59:14;6.55;;;4.25;;
84329;SDS011;74510;42.676;23.432;2024-01-10T04:01:39;4.90;;;3.55;;
84329;SDS011;74510;42.676;23.432;2024-01-10T04:04:05;6.35;;;4.13;;
84329;SDS011;74510;42.676;23.432;2024-01-10T04:06:30;7.53;;;4.28;;
84329;SDS011;74510;42.676;23.432;2024-01-10T04:08:56;5.35;;;4.03;;
84329;SDS011;74510;42.676;23.432;2024-01-10T04:11:21;8.30;;;5.38;;
84329;SDS011;74510;42.676;23.432;2024-01-10T04:13:47;9.55;;;6.13;;
84329;SDS011;74510;42.676;23.432;2024-01-10T04:16:12;9.82;;;4.38;;
84329;SDS011;74510;42.676;23.432;2024-01-10T04:18:38;9.60;;;5.13;;
84329;SDS011;74510;42.676;23.432;2024-01-10T04:21:03;6.90;;;3.83;;
84329;SDS011;74510;42.676;23.432;2024-01-10T04:23:29;13.82;;;8.48;;
84329;SDS011;74510;42.676;23.432;2024-01-10T04:25:55;34.22;;;15.35;;
84329;SDS011;74510;42.676;23.432;2024-01-10T04:28:21;24.95;;;11.25;;
84329;SDS011;74510;42.676;23.432;2024-01-10T04:30:47;15.93;;;8.52;;
84329;SDS011;74510;42.676;23.432;2024-01-10T04:33:12;23.58;;;11.35;;
84329;SDS011;74510;42.676;23.432;2024-01-10T04:35:38;16.27;;;9.80;;
84329;SDS011;74510;42.676;23.432;2024-01-10T04:38:03;9.48;;;5.15;;
84329;SDS011;74510;42.676;23.432;2024-01-10T04:40:28;7.00;;;4.45;;
84329;SDS011;74510;42.676;23.432;2024-01-10T04:42:54;6.07;;;3.95;;
84329;SDS011;74510;42.676;23.432;2024-01-10T04:45:20;5.60;;;3.55;;
84329;SDS011;74510;42.676;23.432;2024-01-10T04:47:45;6.78;;;4.30;;
84329;SDS011;74510;42.676;23.432;2024-01-10T04:50:11;7.40;;;4.22;;
84329;SDS011;74510;42.676;23.432;2024-01-10T04:52:36;12.70;;;5.07;;
84329;SDS011;74510;42.676;23.432;2024-01-10T04:55:01;10.43;;;5.90;;
84329;SDS011;74510;42.676;23.432;2024-01-10T04:57:28;7.93;;;4.57;;
84329;SDS011;74510;42.676;23.432;2024-01-10T04:59:53;6.43;;;3.60;;
84329;SDS011;74510;42.676;23.432;2024-01-10T05:02:19;7.60;;;3.88;;
84329;SDS011;74510;42.676;23.432;2024-01-10T05:04:44;5.80;;;4.00;;
84329;SDS011;74510;42.676;23.432;2024-01-10T05:07:10;5.20;;;3.38;;
84329;SDS011;74510;42.676;23.432;2024-01-10T05:09:36;6.03;;;5.43;;
84329;SDS011;74510;42.676;23.432;2024-01-10T05:12:02;4.88;;;3.40;;
84329;SDS011;74510;42.676;23.432;2024-01-10T05:14:28;7.68;;;4.65;;
84329;SDS011;74510;42.676;23.432;2024-01-10T05:16:53;6.10;;;4.05;;
84329;SDS011;74510;42.676;23.432;2024-01-10T05:19:18;19.42;;;10.50;;
84329;SDS011;74510;42.676;23.432;2024-01-10T05:21:44;6.50;;;3.63;;
84329;SDS011;74510;42.676;23.432;2024-01-10T05:24:09;6.50;;;3.28;;
84329;SDS011;74510;42.676;23.432;2024-01-10T05:26:35;4.45;;;2.83;;
84329;SDS011;74510;42.676;23.432;2024-01-10T05:29:00;5.90;;;3.22;;
84329;SDS011;74510;42.676;23.432;2024-01-10T05:31:26;2.75;;;2.40;;
84329;SDS011;74510;42.676;23.432;2024-01-10T05:33:51;5.97;;;4.25;;
84329;SDS011;74510;42.676;23.432;2024-01-10T05:36:20;6.20;;;3.40;;
84329;SDS011;74510;42.676;23.432;2024-01-10T05:38:47;4.45;;;2.88;;
84329;SDS011;74510;42.676;23.432;2024-01-10T05:41:13;6.80;;;2.80;;
84329;SDS011;74510;42.676;23.432;2024-01-10T05:43:39;5.95;;;3.50;;
84329;SDS011;74510;42.676;23.432;2024-01-10T05:46:05;12.38;;;6.70;;
84329;SDS011;74510;42.676;23.432;2024-01-10T05:48:30;13.13;;;6.18;;
84329;SDS011;74510;42.676;23.432;2024-01-10T05:50:57;8.50;;;5.50;;
84329;SDS011;74510;42.676;23.432;2024-01-10T05:53:23;7.63;;;4.20;;
84329;SDS011;74510;42.676;23.432;2024-01-10T05:55:49;5.05;;;3.45;;
84329;SDS011;74510;42.676;23.432;2024-01-10T05:58:14;7.10;;;3.60;;
84329;SDS011;74510;42.676;23.432;2024-01-10T06:00:40;6.00;;;3.60;;
84329;SDS011;74510;42.676;23.432;2024-01-10T06:03:05;4.38;;;3.30;;
84329;SDS011;74510;42.676;23.432;2024-01-10T06:05:30;7.75;;;4.03;;
84329;SDS011;74510;42.676;23.432;2024-01-10T06:07:56;22.38;;;7.68;;
84329;SDS011;74510;42.676;23.432;2024-01-10T06:10:22;9.82;;;5.65;;
84329;SDS011;74510;42.676;23.432;2024-01-10T06:12:47;6.68;;;3.17;;
84329;SDS011;74510;42.676;23.432;2024-01-10T06:15:13;5.53;;;3.30;;
84329;SDS011;74510;42.676;23.432;2024-01-10T06:17:39;5.30;;;2.90;;
84329;SDS011;74510;42.676;23.432;2024-01-10T06:20:05;4.82;;;3.58;;
84329;SDS011;74510;42.676;23.432;2024-01-10T06:22:32;7.85;;;4.03;;
84329;SDS011;74510;42.676;23.432;2024-01-10T06:24:57;6.40;;;3.72;;
84329;SDS011;74510;42.676;23.432;2024-01-10T06:27:23;20.77;;;9.98;;
84329;SDS011;74510;42.676;23.432;2024-01-10T06:29:49;39.80;;;16.27;;
84329;SDS011;74510;42.676;23.432;2024-01-10T06:32:14;34.70;;;15.18;;
84329;SDS011;74510;42.676;23.432;2024-01-10T06:34:40;18.05;;;9.02;;
84329;SDS011;74510;42.676;23.432;2024-01-10T06:37:05;12.65;;;6.13;;
84329;SDS011;74510;42.676;23.432;2024-01-10T06:39:32;10.00;;;4.95;;
84329;SDS011;74510;42.676;23.432;2024-01-10T06:41:58;5.47;;;4.53;;
84329;SDS011;74510;42.676;23.432;2024-01-10T06:44:24;10.43;;;5.07;;
84329;SDS011;74510;42.676;23.432;2024-01-10T06:46:49;14.10;;;4.10;;
84329;SDS011;74510;42.676;23.432;2024-01-10T06:49:14;8.00;;;4.15;;
84329;SDS011;74510;42.676;23.432;2024-01-10T06:51:40;9.18;;;5.25;;
84329;SDS011;74510;42.676;23.432;2024-01-10T06:54:05;10.48;;;5.93;;
84329;SDS011;74510;42.676;23.432;2024-01-10T06:56:31;6.72;;;3.45;;
84329;SDS011;74510;42.676;23.432;2024-01-10T06:58:58;7.93;;;6.55;;
84329;SDS011;74510;42.676;23.432;2024-01-10T07:01:23;11.98;;;7.57;;
84329;SDS011;74510;42.676;23.432;2024-01-10T07:03:49;16.00;;;8.48;;
84329;SDS011;74510;42.676;23.432;2024-01-10T07:06:15;28.38;;;14.05;;
84329;SDS011;74510;42.676;23.432;2024-01-10T07:08:41;20.27;;;9.98;;
84329;SDS011;74510;42.676;23.432;2024-01-10T07:11:12;30.70;;;17.88;;
84329;SDS011;74510;42.676;23.432;2024-01-10T07:13:38;26.17;;;18.00;;
84329;SDS011;74510;42.676;23.432;2024-01-10T07:16:03;17.23;;;10.60;;
84329;SDS011;74510;42.676;23.432;2024-01-10T07:18:29;16.58;;;9.50;;
84329;SDS011;74510;42.676;23.432;2024-01-10T07:20:55;19.58;;;12.20;;
84329;SDS011;74510;42.676;23.432;2024-01-10T07:23:20;17.30;;;8.23;;
84329;SDS011;74510;42.676;23.432;2024-01-10T07:25:47;14.00;;;7.47;;
84329;SDS011;74510;42.676;23.432;2024-01-10T07:28:14;14.93;;;9.15;;
84329;SDS011;74510;42.676;23.432;2024-01-10T07:30:40;22.77;;;10.63;;
84329;SDS011;74510;42.676;23.432;2024-01-10T07:33:06;20.95;;;12.15;;
84329;SDS011;74510;42.676;23.432;2024-01-10T07:35:32;13.50;;;8.63;;
84329;SDS011;74510;42.676;23.432;2024-01-10T07:37:58;16.08;;;8.25;;
84329;SDS011;74510;42.676;23.432;2024-01-10T07:40:23;11.90;;;6.35;;
84329;SDS011;74510;42.676;23.432;2024-01-10T07:42:49;11.63;;;7.43;;
84329;SDS011;74510;42.676;23.432;2024-01-10T07:45:17;10.98;;;7.30;;
84329;SDS011;74510;42.676;23.432;2024-01-10T07:47:43;15.95;;;8.80;;
84329;SDS011;74510;42.676;23.432;2024-01-10T07:50:08;14.32;;;7.63;;
84329;SDS011;74510;42.676;23.432;2024-01-10T07:52:35;11.48;;;5.93;;
84329;SDS011;74510;42.676;23.432;2024-01-10T07:55:01;8.02;;;5.40;;
84329;SDS011;74510;42.676;23.432;2024-01-10T07:57:30;15.68;;;9.15;;
84329;SDS011;74510;42.676;23.432;2024-01-10T07:59:55;20.92;;;11.73;;
84329;SDS011;74510;42.676;23.432;2024-01-10T08:02:21;15.98;;;9.27;;
84329;SDS011;74510;42.676;23.432;2024-01-10T08:04:46;24.13;;;10.63;;
84329;SDS011;74510;42.676;23.432;2024-01-10T08:07:12;11.32;;;6.47;;
84329;SDS011;74510;42.676;23.432;2024-01-10T08:09:38;18.58;;;8.02;;
84329;SDS011;74510;42.676;23.432;2024-01-10T08:12:04;17.95;;;9.52;;
84329;SDS011;74510;42.676;23.432;2024-01-10T08:14:29;18.20;;;11.15;;
84329;SDS011;74510;42.676;23.432;2024-01-10T08:16:55;14.00;;;9.52;;
84329;SDS011;74510;42.676;23.432;2024-01-10T08:19:23;11.48;;;7.25;;
84329;SDS011;74510;42.676;23.432;2024-01-10T08:21:51;49.40;;;15.13;;
84329;SDS011;74510;42.676;23.432;2024-01-10T08:24:18;24.73;;;11.75;;
84329;SDS011;74510;42.676;23.432;2024-01-10T08:26:43;18.60;;;11.13;;
84329;SDS011;74510;42.676;23.432;2024-01-10T08:29:09;14.93;;;6.80;;
84329;SDS011;74510;42.676;23.432;2024-01-10T08:31:34;9.80;;;6.00;;
84329;SDS011;74510;42.676;23.432;2024-01-10T08:33:59;13.93;;;9.32;;
84329;SDS011;74510;42.676;23.432;2024-01-10T08:36:25;8.32;;;6.13;;
84329;SDS011;74510;42.676;23.432;2024-01-10T08:38:50;13.00;;;4.72;;
84329;SDS011;74510;42.676;23.432;2024-01-10T08:41:17;11.52;;;4.43;;
84329;SDS011;74510;42.676;23.432;2024-01-10T08:43:42;7.93;;;3.58;;
84329;SDS011;74510;42.676;23.432;2024-01-10T08:46:08;4.63;;;3.53;;
84329;SDS011;74510;42.676;23.432;2024-01-10T08:48:34;22.17;;;13.90;;
84329;SDS011;74510;42.676;23.432;2024-01-10T08:51:01;4.45;;;3.30;;
84329;SDS011;74510;42.676;23.432;2024-01-10T08:53:27;13.38;;;8.00;;
84329;SDS011;74510;42.676;23.432;2024-01-10T08:55:53;7.38;;;4.60;;
84329;SDS011;74510;42.676;23.432;2024-01-10T08:58:18;15.48;;;7.78;;
84329;SDS011;74510;42.676;23.432;2024-01-10T09:00:43;2.25;;;2.08;;
84329;SDS011;74510;42.676;23.432;2024-01-10T09:03:09;1.80;;;1.70;;
84329;SDS011;74510;42.676;23.432;2024-01-10T09:05:34;7.80;;;5.13;;
84329;SDS011;74510;42.676;23.432;2024-01-10T09:08:00;8.63;;;4.90;;
84329;SDS011;74510;42.676;23.432;2024-01-10T09:10:25;6.65;;;4.13;;
84329;SDS011;74510;42.676;23.432;2024-01-10T09:12:53;3.88;;;2.20;;
84329;SDS011;74510;42.676;23.432;2024-01-10T09:15:19;4.75;;;3.38;;
84329;SDS011;74510;42.676;23.432;2024-01-10T09:17:45;5.30;;;3.08;;
84329;SDS011;74510;42.676;23.432;2024-01-10T09:20:11;11.23;;;4.85;;
84329;SDS011;74510;42.676;23.432;2024-01-10T09:22:38;5.90;;;5.18;;
84329;SDS011;74510;42.676;23.432;2024-01-10T09:25:06;4.13;;;2.95;;
84329;SDS011;74510;42.676;23.432;2024-01-10T09:27:33;9.00;;;4.18;;
84329;SDS011;74510;42.676;23.432;2024-01-10T09:29:59;17.00;;;6.70;;
84329;SDS011;74510;42.676;23.432;2024-01-10T09:32:27;11.93;;;3.92;;
84329;SDS011;74510;42.676;23.432;2024-01-10T09:34:53;11.40;;;5.00;;
84329;SDS011;74510;42.676;23.432;2024-01-10T09:37:19;7.18;;;3.10;;
84329;SDS011;74510;42.676;23.432;2024-01-10T09:39:44;5.38;;;3.58;;
84329;SDS011;74510;42.676;23.432;2024-01-10T09:42:10;10.63;;;5.25;;
84329;SDS011;74510;42.676;23.432;2024-01-10T09:44:35;10.90;;;4.32;;
84329;SDS011;74510;42.676;23.432;2024-01-10T09:47:01;10.15;;;5.97;;
84329;SDS011;74510;42.676;23.432;2024-01-10T09:49:27;16.23;;;6.10;;
84329;SDS011;74510;42.676;23.432;2024-01-10T09:51:59;21.80;;;11.20;;
84329;SDS011;74510;42.676;23.432;2024-01-10T09:56:54;9.38;;;4.95;;
84329;SDS011;74510;42.676;23.432;2024-01-10T09:59:20;8.55;;;4.55;;
84329;SDS011;74510;42.676;23.432;2024-01-10T10:01:46;10.00;;;4.72;;
84329;SDS011;74510;42.676;23.432;2024-01-10T10:04:12;7.13;;;5.43;;
84329;SDS011;74510;42.676;23.432;2024-01-10T10:06:38;7.72;;;5.93;;
84329;SDS011;74510;42.676;23.432;2024-01-10T10:09:03;10.57;;;6.25;;
84329;SDS011;74510;42.676;23.432;2024-01-10T10:11:29;12.77;;;6.25;;
84329;SDS011;74510;42.676;23.432;2024-01-10T10:13:55;11.75;;;6.43;;
84329;SDS011;74510;42.676;23.432;2024-01-10T10:16:24;13.85;;;5.95;;
84329;SDS011;74510;42.676;23.432;2024-01-10T10:18:51;11.13;;;5.68;;
84329;SDS011;74510;42.676;23.432;2024-01-10T10:21:19;12.95;;;6.60;;
84329;SDS011;74510;42.676;23.432;2024-01-10T10:23:58;12.82;;;5.68;;
84329;SDS011;74510;42.676;23.432;2024-01-10T10:26:25;10.35;;;5.82;;
84329;SDS011;74510;42.676;23.432;2024-01-10T10:28:51;9.27;;;4.97;;
84329;SDS011;74510;42.676;23.432;2024-01-10T10:31:17;9.18;;;4.70;;
84329;SDS011;74510;42.676;23.432;2024-01-10T10:33:44;9.43;;;5.03;;
84329;SDS011;74510;42.676;23.432;2024-01-10T10:36:10;2.88;;;2.53;;
84329;SDS011;74510;42.676;23.432;2024-01-10T10:38:36;11.70;;;4.82;;
84329;SDS011;74510;42.676;23.432;2024-01-10T10:41:05;7.53;;;5.20;;
84329;SDS011;74510;42.676;23.432;2024-01-10T10:43:37;14.15;;;5.63;;
84329;SDS011;74510;42.676;23.432;2024-01-10T10:46:04;9.85;;;4.43;;
84329;SDS011;74510;42.676;23.432;2024-01-10T10:48:34;8.32;;;5.30;;
84329;SDS011;74510;42.676;23.432;2024-01-10T10:51:08;9.68;;;5.10;;
84329;SDS011;74510;42.676;23.432;2024-01-10T10:53:34;10.20;;;5.68;;
84329;SDS011;74510;42.676;23.432;2024-01-10T10:56:04;13.95;;;7.13;;
84329;SDS011;74510;42.676;23.432;2024-01-10T10:58:35;9.05;;;5.90;;
84329;SDS011;74510;42.676;23.432;2024-01-10T11:01:04;8.38;;;4.50;;
84329;SDS011;74510;42.676;23.432;2024-01-10T11:03:31;10.02;;;5.35;;
84329;SDS011;74510;42.676;23.432;2024-01-10T11:06:00;10.88;;;5.57;;
84329;SDS011;74510;42.676;23.432;2024-01-10T11:08:27;11.70;;;4.85;;
84329;SDS011;74510;42.676;23.432;2024-01-10T11:10:54;10.20;;;5.20;;
84329;SDS011;74510;42.676;23.432;2024-01-10T11:16:13;11.05;;;5.60;;
84329;SDS011;74510;42.676;23.432;2024-01-10T11:22:07;10.40;;;6.47;;
84329;SDS011;74510;42.676;23.432;2024-01-10T11:24:46;13.75;;;6.35;;
84329;SDS011;74510;42.676;23.432;2024-01-10T11:27:13;11.18;;;6.00;;
84329;SDS011;74510;42.676;23.432;2024-01-10T11:29:40;11.55;;;6.80;;
84329;SDS011;74510;42.676;23.432;2024-01-10T11:32:12;15.07;;;7.95;;
84329;SDS011;74510;42.676;23.432;2024-01-10T11:37:20;14.57;;;7.13;;
84329;SDS011;74510;42.676;23.432;2024-01-10T11:39:45;15.50;;;8.05;;
84329;SDS011;74510;42.676;23.432;2024-01-10T11:42:11;12.27;;;7.22;;
84329;SDS011;74510;42.676;23.432;2024-01-10T11:44:50;6.43;;;4.43;;
84329;SDS011;74510;42.676;23.432;2024-01-10T11:47:16;11.52;;;6.32;;
84329;SDS011;74510;42.676;23.432;2024-01-10T11:49:57;11.45;;;5.97;;
84329;SDS011;74510;42.676;23.432;2024-01-10T11:52:23;9.20;;;6.40;;
84329;SDS011;74510;42.676;23.432;2024-01-10T11:54:56;10.82;;;7.00;;
84329;SDS011;74510;42.676;23.432;2024-01-10T11:57:23;9.93;;;5.75;;
84329;SDS011;74510;42.676;23.432;2024-01-10T11:59:52;9.65;;;6.05;;
84329;SDS011;74510;42.676;23.432;2024-01-10T12:02:20;22.52;;;10.02;;
84329;SDS011;74510;42.676;23.432;2024-01-10T12:04:47;16.52;;;7.88;;
84329;SDS011;74510;42.676;23.432;2024-01-10T12:07:13;7.10;;;5.22;;
84329;SDS011;74510;42.676;23.432;2024-01-10T12:09:39;9.27;;;5.72;;
84329;SDS011;74510;42.676;23.432;2024-01-10T12:12:05;12.18;;;5.78;;
84329;SDS011;74510;42.676;23.432;2024-01-10T12:14:31;11.75;;;5.57;;
84329;SDS011;74510;42.676;23.432;2024-01-10T12:16:57;8.60;;;5.03;;
84329;SDS011;74510;42.676;23.432;2024-01-10T12:19:22;9.35;;;6.32;;
84329;SDS011;74510;42.676;23.432;2024-01-10T12:21:48;8.20;;;5.30;;
84329;SDS011;74510;42.676;23.432;2024-01-10T12:24:14;11.23;;;6.75;;
84329;SDS011;74510;42.676;23.432;2024-01-10T12:26:43;10.63;;;5.55;;
84329;SDS011;74510;42.676;23.432;2024-01-10T12:29:10;6.40;;;3.45;;
84329;SDS011;74510;42.676;23.432;2024-01-10T12:31:35;6.85;;;3.88;;
84329;SDS011;74510;42.676;23.432;2024-01-10T12:34:02;19.02;;;9.15;;
84329;SDS011;74510;42.676;23.432;2024-01-10T12:36:28;41.75;;;19.10;;
84329;SDS011;74510;42.676;23.432;2024-01-10T12:38:53;9.73;;;4.85;;
84329;SDS011;74510;42.676;23.432;2024-01-10T12:41:19;7.30;;;4.40;;
84329;SDS011;74510;42.676;23.432;2024-01-10T12:43:48;7.07;;;4.50;;
84329;SDS011;74510;42.676;23.432;2024-01-10T12:46:15;6.15;;;4.03;;
84329;SDS011;74510;42.676;23.432;2024-01-10T12:48:41;10.73;;;4.95;;
84329;SDS011;74510;42.676;23.432;2024-01-10T12:51:07;9.73;;;5.05;;
84329;SDS011;74510;42.676;23.432;2024-01-10T12:53:43;8.05;;;4.80;;
84329;SDS011;74510;42.676;23.432;2024-01-10T12:56:09;10.38;;;4.38;;
84329;SDS011;74510;42.676;23.432;2024-01-10T12:58:39;7.82;;;4.55;;
84329;SDS011;74510;42.676;23.432;2024-01-10T13:01:08;9.65;;;4.50;;
84329;SDS011;74510;42.676;23.432;2024-01-10T13:03:34;9.18;;;5.90;;
84329;SDS011;74510;42.676;23.432;2024-01-10T13:05:59;10.07;;;7.50;;
84329;SDS011;74510;42.676;23.432;2024-01-10T13:08:25;7.55;;;4.88;;
84329;SDS011;74510;42.676;23.432;2024-01-10T13:10:50;19.25;;;6.75;;
84329;SDS011;74510;42.676;23.432;2024-01-10T13:13:16;10.52;;;6.32;;
84329;SDS011;74510;42.676;23.432;2024-01-10T13:15:47;8.93;;;5.95;;
84329;SDS011;74510;42.676;23.432;2024-01-10T13:18:13;10.63;;;7.05;;
84329;SDS011;74510;42.676;23.432;2024-01-10T13:20:39;13.38;;;6.72;;
84329;SDS011;74510;42.676;23.432;2024-01-10T13:23:05;13.13;;;6.18;;
84329;SDS011;74510;42.676;23.432;2024-01-10T13:25:30;8.63;;;5.63;;
84329;SDS011;74510;42.676;23.432;2024-01-10T13:27:56;8.95;;;6.00;;
84329;SDS011;74510;42.676;23.432;2024-01-10T13:30:22;9.90;;;5.43;;
84329;SDS011;74510;42.676;23.432;2024-01-10T13:32:48;9.93;;;6.70;;
84329;SDS011;74510;42.676;23.432;2024-01-10T13:35:14;12.13;;;7.35;;
84329;SDS011;74510;42.676;23.432;2024-01-10T13:37:41;11.27;;;6.80;;
84329;SDS011;74510;42.676;23.432;2024-01-10T13:40:07;14.40;;;8.25;;
84329;SDS011;74510;42.676;23.432;2024-01-10T13:42:35;19.02;;;14.77;;
84329;SDS011;74510;42.676;23.432;2024-01-10T13:45:02;13.77;;;11.45;;
84329;SDS011;74510;42.676;23.432;2024-01-10T13:47:31;11.27;;;7.95;;
84329;SDS011;74510;42.676;23.432;2024-01-10T13:49:58;13.73;;;7.45;;
84329;SDS011;74510;42.676;23.432;2024-01-10T13:52:24;18.17;;;9.60;;
84329;SDS011;74510;42.676;23.432;2024-01-10T13:54:49;18.42;;;9.95;;
84329;SDS011;74510;42.676;23.432;2024-01-10T13:57:15;17.83;;;9.73;;
84329;SDS011;74510;42.676;23.432;2024-01-10T13:59:40;16.17;;;8.55;;
84329;SDS011;74510;42.676;23.432;2024-01-10T14:02:06;15.05;;;8.40;;
84329;SDS011;74510;42.676;23.432;2024-01-10T14:04:32;18.63;;;10.27;;
84329;SDS011;74510;42.676;23.432;2024-01-10T14:06:58;22.88;;;15.45;;
84329;SDS011;74510;42.676;23.432;2024-01-10T14:09:23;20.02;;;11.25;;
84329;SDS011;74510;42.676;23.432;2024-01-10T14:11:49;12.80;;;8.48;;
84329;SDS011;74510;42.676;23.432;2024-01-10T14:14:15;15.85;;;9.73;;
84329;SDS011;74510;42.676;23.432;2024-01-10T14:16:41;22.88;;;12.45;;
84329;SDS011;74510;42.676;23.432;2024-01-10T14:19:06;28.48;;;14.23;;
84329;SDS011;74510;42.676;23.432;2024-01-10T14:21:32;25.80;;;13.52;;
84329;SDS011;74510;42.676;23.432;2024-01-10T14:23:58;85.88;;;32.28;;
84329;SDS011;74510;42.676;23.432;2024-01-10T14:26:23;43.97;;;20.17;;
84329;SDS011;74510;42.676;23.432;2024-01-10T14:28:49;22.95;;;12.80;;
84329;SDS011;74510;42.676;23.432;2024-01-10T14:31:17;21.67;;;11.48;;
84329;SDS011;74510;42.676;23.432;2024-01-10T14:33:44;21.60;;;10.70;;